sensor_id;sensor_type;location;lat;lon;timestamp;pressure;altitude;pressure_sealevel;temperature
65272;BMP280;51868;48.812;8.198;2023-07-02T00:01:55;99820.81;;;19.44
65272;BMP280;51868;48.812;8.198;2023-07-02T00:04:22;99821.50;;;19.45
65272;BMP280;51868;48.812;8.198;2023-07-02T00:06:50;99825.03;;;19.43
65272;BMP280;51868;48.812;8.198;2023-07-02T00:09:17;99820.09;;;19.40
65272;BMP280;51868;48.812;8.198;2023-07-02T00:11:46;99816.56;;;19.37
65272;BMP280;51868;48.812;8.198;2023-07-02T00:14:14;99820.78;;;19.34
65272;BMP280;51868;48.812;8.198;2023-07-02T00:16:43;99823.56;;;19.32
65272;BMP280;51868;48.812;8.198;2023-07-02T00:19:10;99819.34;;;19.29
65272;BMP280;51868;48.812;8.198;2023-07-02T00:21:38;99814.44;;;19.28
65272;BMP280;51868;48.812;8.198;2023-07-02T00:24:06;99827.78;;;19.27
65272;BMP280;51868;48.812;8.198;2023-07-02T00:26:36;99827.78;;;19.25
65272;BMP280;51868;48.812;8.198;2023-07-02T00:29:05;99815.81;;;19.25
65272;BMP280;51868;48.812;8.198;2023-07-02T00:31:34;99817.22;;;19.24
65272;BMP280;51868;48.812;8.198;2023-07-02T00:34:02;99824.25;;;19.25
65272;BMP280;51868;48.812;8.198;2023-07-02T00:36:30;99824.97;;;19.23
65272;BMP280;51868;48.812;8.198;2023-07-02T00:38:58;99829.19;;;19.24
65272;BMP280;51868;48.812;8.198;2023-07-02T00:41:25;99832.00;;;19.24
65272;BMP280;51868;48.812;8.198;2023-07-02T00:43:53;99824.28;;;19.27
65272;BMP280;51868;48.812;8.198;2023-07-02T00:46:23;99818.66;;;19.27
65272;BMP280;51868;48.812;8.198;2023-07-02T00:48:52;99832.00;;;19.28
65272;BMP280;51868;48.812;8.198;2023-07-02T00:51:20;99826.38;;;19.28
65272;BMP280;51868;48.812;8.198;2023-07-02T00:53:49;99830.59;;;19.27
65272;BMP280;51868;48.812;8.198;2023-07-02T00:56:17;99834.16;;;19.28
65272;BMP280;51868;48.812;8.198;2023-07-02T00:58:45;99835.53;;;19.27
65272;BMP280;51868;48.812;8.198;2023-07-02T01:01:15;99832.00;;;19.28
65272;BMP280;51868;48.812;8.198;2023-07-02T01:03:51;99839.06;;;19.31
65272;BMP280;51868;48.812;8.198;2023-07-02T01:06:22;99841.16;;;19.33
65272;BMP280;51868;48.812;8.198;2023-07-02T01:08:52;99830.59;;;19.33
65272;BMP280;51868;48.812;8.198;2023-07-02T01:11:20;99832.03;;;19.36
65272;BMP280;51868;48.812;8.198;2023-07-02T01:13:48;99822.88;;;19.38
65272;BMP280;51868;48.812;8.198;2023-07-02T01:16:19;99830.63;;;19.41
65272;BMP280;51868;48.812;8.198;2023-07-02T01:18:48;99829.94;;;19.43
65272;BMP280;51868;48.812;8.198;2023-07-02T01:21:18;99828.56;;;19.44
65272;BMP280;51868;48.812;8.198;2023-07-02T01:23:46;99823.59;;;19.42
65272;BMP280;51868;48.812;8.198;2023-07-02T01:26:14;99825.03;;;19.43
65272;BMP280;51868;48.812;8.198;2023-07-02T01:28:41;99837.00;;;19.44
65272;BMP280;51868;48.812;8.198;2023-07-02T01:31:09;99839.81;;;19.44
65272;BMP280;51868;48.812;8.198;2023-07-02T01:33:36;99839.78;;;19.46
65272;BMP280;51868;48.812;8.198;2023-07-02T01:36:04;99851.06;;;19.46
65272;BMP280;51868;48.812;8.198;2023-07-02T01:38:33;99846.13;;;19.47
65272;BMP280;51868;48.812;8.198;2023-07-02T01:41:01;99845.44;;;19.48
65272;BMP280;51868;48.812;8.198;2023-07-02T01:43:28;99844.03;;;19.53
65272;BMP280;51868;48.812;8.198;2023-07-02T01:45:56;99852.50;;;19.53
65272;BMP280;51868;48.812;8.198;2023-07-02T01:48:24;99840.53;;;19.53
65272;BMP280;51868;48.812;8.198;2023-07-02T01:50:51;99865.84;;;19.51
65272;BMP280;51868;48.812;8.198;2023-07-02T01:53:19;99864.44;;;19.52
65272;BMP280;51868;48.812;8.198;2023-07-02T01:55:48;99868.66;;;19.51
65272;BMP280;51868;48.812;8.198;2023-07-02T01:58:15;99868.66;;;19.49
65272;BMP280;51868;48.812;8.198;2023-07-02T02:00:43;99874.97;;;19.47
65272;BMP280;51868;48.812;8.198;2023-07-02T02:03:10;99878.47;;;19.41
65272;BMP280;51868;48.812;8.198;2023-07-02T02:05:38;99884.09;;;19.37
65272;BMP280;51868;48.812;8.198;2023-07-02T02:08:06;99884.78;;;19.32
65272;BMP280;51868;48.812;8.198;2023-07-02T02:10:33;99882.63;;;19.28
65272;BMP280;51868;48.812;8.198;2023-07-02T02:13:02;99888.94;;;19.25
65272;BMP280;51868;48.812;8.198;2023-07-02T02:15:29;99888.97;;;19.21
65272;BMP280;51868;48.812;8.198;2023-07-02T02:17:57;99892.44;;;19.15
65272;BMP280;51868;48.812;8.198;2023-07-02T02:20:24;99891.69;;;19.06
65272;BMP280;51868;48.812;8.198;2023-07-02T02:22:52;99897.97;;;18.99
65272;BMP280;51868;48.812;8.198;2023-07-02T02:25:19;99897.22;;;18.92
65272;BMP280;51868;48.812;8.198;2023-07-02T02:27:47;99895.13;;;18.90
65272;BMP280;51868;48.812;8.198;2023-07-02T02:30:16;99894.38;;;18.88
65272;BMP280;51868;48.812;8.198;2023-07-02T02:32:44;99902.81;;;18.84
65272;BMP280;51868;48.812;8.198;2023-07-02T02:35:11;99907.00;;;18.81
65272;BMP280;51868;48.812;8.198;2023-07-02T02:37:39;99913.34;;;18.79
65272;BMP280;51868;48.812;8.198;2023-07-02T02:40:07;99904.91;;;18.77
65272;BMP280;51868;48.812;8.198;2023-07-02T02:42:35;99899.94;;;18.74
65272;BMP280;51868;48.812;8.198;2023-07-02T02:45:03;99911.13;;;18.69
65272;BMP280;51868;48.812;8.198;2023-07-02T02:47:32;99917.47;;;18.68
65272;BMP280;51868;48.812;8.198;2023-07-02T02:49:59;99909.69;;;18.64
65272;BMP280;51868;48.812;8.198;2023-07-02T02:52:27;99909.00;;;18.62
65272;BMP280;51868;48.812;8.198;2023-07-02T02:54:54;99905.47;;;18.59
65272;BMP280;51868;48.812;8.198;2023-07-02T02:57:22;99908.97;;;18.58
65272;BMP280;51868;48.812;8.198;2023-07-02T02:59:49;99890.69;;;18.57
65272;BMP280;51868;48.812;8.198;2023-07-02T03:02:17;99899.84;;;18.57
65272;BMP280;51868;48.812;8.198;2023-07-02T03:04:46;99901.94;;;18.57
65272;BMP280;51868;48.812;8.198;2023-07-02T03:07:15;99900.50;;;18.56
65272;BMP280;51868;48.812;8.198;2023-07-02T03:09:43;99911.72;;;18.50
65272;BMP280;51868;48.812;8.198;2023-07-02T03:12:10;99911.66;;;18.43
65272;BMP280;51868;48.812;8.198;2023-07-02T03:14:38;99907.41;;;18.40
65272;BMP280;51868;48.812;8.198;2023-07-02T03:17:05;99917.94;;;18.38
65272;BMP280;51868;48.812;8.198;2023-07-02T03:19:33;99917.91;;;18.36
65272;BMP280;51868;48.812;8.198;2023-07-02T03:22:02;99915.78;;;18.32
65272;BMP280;51868;48.812;8.198;2023-07-02T03:24:29;99924.16;;;18.30
65272;BMP280;51868;48.812;8.198;2023-07-02T03:26:57;99917.84;;;18.28
65272;BMP280;51868;48.812;8.198;2023-07-02T03:29:24;99921.34;;;18.24
65272;BMP280;51868;48.812;8.198;2023-07-02T03:31:52;99925.50;;;18.21
65272;BMP280;51868;48.812;8.198;2023-07-02T03:34:19;99929.03;;;18.20
65272;BMP280;51868;48.812;8.198;2023-07-02T03:36:48;99931.84;;;18.20
65272;BMP280;51868;48.812;8.198;2023-07-02T03:39:17;99928.28;;;18.17
65272;BMP280;51868;48.812;8.198;2023-07-02T03:41:44;99934.59;;;18.15
65272;BMP280;51868;48.812;8.198;2023-07-02T03:44:12;99944.41;;;18.16
65272;BMP280;51868;48.812;8.198;2023-07-02T03:46:40;99950.03;;;18.14
65272;BMP280;51868;48.812;8.198;2023-07-02T03:49:07;99940.91;;;18.16
65272;BMP280;51868;48.812;8.198;2023-07-02T03:51:35;99947.25;;;18.21
65272;BMP280;51868;48.812;8.198;2023-07-02T03:54:02;99945.88;;;18.20
65272;BMP280;51868;48.812;8.198;2023-07-02T03:56:31;99950.03;;;18.16
65272;BMP280;51868;48.812;8.198;2023-07-02T03:58:58;99946.50;;;18.14
65272;BMP280;51868;48.812;8.198;2023-07-02T04:01:26;99956.31;;;18.13
65272;BMP280;51868;48.812;8.198;2023-07-02T04:03:54;99957.69;;;18.10
65272;BMP280;51868;48.812;8.198;2023-07-02T04:06:22;99962.56;;;18.07
65272;BMP280;51868;48.812;8.198;2023-07-02T04:08:50;99957.69;;;18.08
65272;BMP280;51868;48.812;8.198;2023-07-02T04:11:17;99966.09;;;18.08
65272;BMP280;51868;48.812;8.198;2023-07-02T04:13:46;99966.81;;;18.08
65272;BMP280;51868;48.812;8.198;2023-07-02T04:16:14;99974.53;;;18.10
65272;BMP280;51868;48.812;8.198;2023-07-02T04:18:42;99980.88;;;18.10
65272;BMP280;51868;48.812;8.198;2023-07-02T04:21:09;99980.16;;;18.12
65272;BMP280;51868;48.812;8.198;2023-07-02T04:23:37;99976.72;;;18.17
65272;BMP280;51868;48.812;8.198;2023-07-02T04:26:04;99985.19;;;18.20
65272;BMP280;51868;48.812;8.198;2023-07-02T04:28:43;99992.91;;;18.21
65272;BMP280;51868;48.812;8.198;2023-07-02T04:31:12;99992.91;;;18.21
65272;BMP280;51868;48.812;8.198;2023-07-02T04:33:39;99990.06;;;18.17
65272;BMP280;51868;48.812;8.198;2023-07-02T04:36:07;99994.28;;;18.18
65272;BMP280;51868;48.812;8.198;2023-07-02T04:38:35;100001.31;;;18.19
65272;BMP280;51868;48.812;8.198;2023-07-02T04:41:05;99988.66;;;18.18
65272;BMP280;51868;48.812;8.198;2023-07-02T04:43:33;99987.28;;;18.21
65272;BMP280;51868;48.812;8.198;2023-07-02T04:46:00;99996.44;;;18.24
65272;BMP280;51868;48.812;8.198;2023-07-02T04:48:30;99995.75;;;18.23
65272;BMP280;51868;48.812;8.198;2023-07-02T04:50:57;99992.94;;;18.23
65272;BMP280;51868;48.812;8.198;2023-07-02T04:53:25;99998.56;;;18.25
65272;BMP280;51868;48.812;8.198;2023-07-02T04:55:52;100004.91;;;18.28
65272;BMP280;51868;48.812;8.198;2023-07-02T04:58:20;100007.75;;;18.32
65272;BMP280;51868;48.812;8.198;2023-07-02T05:00:48;100006.38;;;18.35
65272;BMP280;51868;48.812;8.198;2023-07-02T05:03:16;100016.28;;;18.38
65272;BMP280;51868;48.812;8.198;2023-07-02T05:05:45;100014.19;;;18.40
65272;BMP280;51868;48.812;8.198;2023-07-02T05:08:14;100015.56;;;18.39
65272;BMP280;51868;48.812;8.198;2023-07-02T05:10:41;100016.28;;;18.40
65272;BMP280;51868;48.812;8.198;2023-07-02T05:13:09;100024.06;;;18.43
65272;BMP280;51868;48.812;8.198;2023-07-02T05:15:36;100015.63;;;18.43
65272;BMP280;51868;48.812;8.198;2023-07-02T05:18:04;100026.19;;;18.47
65272;BMP280;51868;48.812;8.198;2023-07-02T05:20:32;100032.56;;;18.52
65272;BMP280;51868;48.812;8.198;2023-07-02T05:23:01;100031.16;;;18.55
65272;BMP280;51868;48.812;8.198;2023-07-02T05:25:29;100025.59;;;18.59
65272;BMP280;51868;48.812;8.198;2023-07-02T05:27:58;100029.19;;;18.65
65272;BMP280;51868;48.812;8.198;2023-07-02T05:30:26;100024.25;;;18.68
65272;BMP280;51868;48.812;8.198;2023-07-02T05:32:53;100026.41;;;18.72
65272;BMP280;51868;48.812;8.198;2023-07-02T05:35:21;100032.03;;;18.74
65272;BMP280;51868;48.812;8.198;2023-07-02T05:37:49;100031.34;;;18.73
65272;BMP280;51868;48.812;8.198;2023-07-02T05:40:17;100031.38;;;18.75
65272;BMP280;51868;48.812;8.198;2023-07-02T05:42:45;100036.28;;;18.79
65272;BMP280;51868;48.812;8.198;2023-07-02T05:45:12;100039.19;;;18.87
65272;BMP280;51868;48.812;8.198;2023-07-02T05:47:40;100035.75;;;18.97
65272;BMP280;51868;48.812;8.198;2023-07-02T05:50:08;100033.75;;;19.13
65272;BMP280;51868;48.812;8.198;2023-07-02T05:52:36;100034.53;;;19.24
65272;BMP280;51868;48.812;8.198;2023-07-02T05:55:04;100039.50;;;19.32
65272;BMP280;51868;48.812;8.198;2023-07-02T05:57:33;100041.69;;;19.48
65272;BMP280;51868;48.812;8.198;2023-07-02T06:00:00;100041.81;;;19.62
65272;BMP280;51868;48.812;8.198;2023-07-02T06:02:28;100046.06;;;19.75
65272;BMP280;51868;48.812;8.198;2023-07-02T06:04:55;100043.31;;;19.87
65272;BMP280;51868;48.812;8.198;2023-07-02T06:07:24;100051.09;;;19.97
65272;BMP280;51868;48.812;8.198;2023-07-02T06:09:51;100049.00;;;20.08
65272;BMP280;51868;48.812;8.198;2023-07-02T06:12:19;100058.91;;;20.19
65272;BMP280;51868;48.812;8.198;2023-07-02T06:14:49;100061.03;;;20.27
65272;BMP280;51868;48.812;8.198;2023-07-02T06:17:16;100061.06;;;20.25
65272;BMP280;51868;48.812;8.198;2023-07-02T06:19:44;100063.88;;;20.29
65272;BMP280;51868;48.812;8.198;2023-07-02T06:22:11;100070.19;;;20.35
65272;BMP280;51868;48.812;8.198;2023-07-02T06:24:39;100073.06;;;20.41
65272;BMP280;51868;48.812;8.198;2023-07-02T06:27:07;100073.06;;;20.50
65272;BMP280;51868;48.812;8.198;2023-07-02T06:29:34;100075.16;;;20.51
65272;BMP280;51868;48.812;8.198;2023-07-02T06:32:04;100089.28;;;20.59
65272;BMP280;51868;48.812;8.198;2023-07-02T06:34:31;100082.25;;;20.68
65272;BMP280;51868;48.812;8.198;2023-07-02T06:36:59;100076.63;;;20.70
65272;BMP280;51868;48.812;8.198;2023-07-02T06:39:27;100080.84;;;20.80
65272;BMP280;51868;48.812;8.198;2023-07-02T06:41:54;100075.91;;;20.92
65272;BMP280;51868;48.812;8.198;2023-07-02T06:44:22;100075.22;;;21.00
65272;BMP280;51868;48.812;8.198;2023-07-02T06:46:49;100078.00;;;21.08
65272;BMP280;51868;48.812;8.198;2023-07-02T06:49:18;100090.00;;;21.17
65272;BMP280;51868;48.812;8.198;2023-07-02T06:51:46;100086.44;;;21.26
65272;BMP280;51868;48.812;8.198;2023-07-02T06:54:13;100077.97;;;21.35
65272;BMP280;51868;48.812;8.198;2023-07-02T06:56:41;100083.56;;;21.47
65272;BMP280;51868;48.812;8.198;2023-07-02T06:59:09;100088.50;;;21.59
65272;BMP280;51868;48.812;8.198;2023-07-02T07:01:36;100084.22;;;21.68
65272;BMP280;51868;48.812;8.198;2023-07-02T07:04:04;100089.88;;;21.72
65272;BMP280;51868;48.812;8.198;2023-07-02T07:06:33;100091.25;;;21.77
65272;BMP280;51868;48.812;8.198;2023-07-02T07:09:00;100084.16;;;21.80
65272;BMP280;51868;48.812;8.198;2023-07-02T07:11:29;100088.34;;;21.91
65272;BMP280;51868;48.812;8.198;2023-07-02T07:13:56;100088.31;;;22.03
65272;BMP280;51868;48.812;8.198;2023-07-02T07:16:24;100088.28;;;22.14
65272;BMP280;51868;48.812;8.198;2023-07-02T07:18:52;100099.56;;;22.16
65272;BMP280;51868;48.812;8.198;2023-07-02T07:21:19;100098.13;;;22.17
65272;BMP280;51868;48.812;8.198;2023-07-02T07:23:48;100092.44;;;22.19
65272;BMP280;51868;48.812;8.198;2023-07-02T07:26:16;100103.00;;;22.32
65272;BMP280;51868;48.812;8.198;2023-07-02T07:28:43;100100.06;;;22.49
65272;BMP280;51868;48.812;8.198;2023-07-02T07:31:12;100096.50;;;22.56
65272;BMP280;51868;48.812;8.198;2023-07-02T07:33:40;100097.22;;;22.53
65272;BMP280;51868;48.812;8.198;2023-07-02T07:36:07;100099.38;;;22.44
65272;BMP280;51868;48.812;8.198;2023-07-02T07:38:35;100098.63;;;22.50
65272;BMP280;51868;48.812;8.198;2023-07-02T07:41:03;100109.19;;;22.55
65272;BMP280;51868;48.812;8.198;2023-07-02T07:43:31;100099.34;;;22.52
65272;BMP280;51868;48.812;8.198;2023-07-02T07:45:59;100107.72;;;22.63
65272;BMP280;51868;48.812;8.198;2023-07-02T07:48:26;100104.81;;;22.75
65272;BMP280;51868;48.812;8.198;2023-07-02T07:50:54;100097.69;;;22.84
65272;BMP280;51868;48.812;8.198;2023-07-02T07:53:21;100096.19;;;22.93
65272;BMP280;51868;48.812;8.198;2023-07-02T07:55:49;100089.03;;;23.00
65272;BMP280;51868;48.812;8.198;2023-07-02T07:58:18;100093.88;;;23.12
65272;BMP280;51868;48.812;8.198;2023-07-02T08:00:45;100085.25;;;23.24
65272;BMP280;51868;48.812;8.198;2023-07-02T08:03:13;100084.44;;;23.34
65272;BMP280;51868;48.812;8.198;2023-07-02T08:05:41;100091.47;;;23.39
65272;BMP280;51868;48.812;8.198;2023-07-02T08:08:08;100090.75;;;23.41
65272;BMP280;51868;48.812;8.198;2023-07-02T08:10:36;100087.88;;;23.45
65272;BMP280;51868;48.812;8.198;2023-07-02T08:13:03;100087.06;;;23.52
65272;BMP280;51868;48.812;8.198;2023-07-02T08:15:32;100088.38;;;23.63
65272;BMP280;51868;48.812;8.198;2023-07-02T08:18:00;100088.28;;;23.70
65272;BMP280;51868;48.812;8.198;2023-07-02T08:20:28;100078.13;;;23.89
65272;BMP280;51868;48.812;8.198;2023-07-02T08:22:55;100075.94;;;23.91
65272;BMP280;51868;48.812;8.198;2023-07-02T08:25:23;100073.09;;;23.93
65272;BMP280;51868;48.812;8.198;2023-07-02T08:27:53;100081.09;;;23.79
65272;BMP280;51868;48.812;8.198;2023-07-02T08:30:20;100078.31;;;23.73
65272;BMP280;51868;48.812;8.198;2023-07-02T08:32:49;100075.53;;;23.71
65272;BMP280;51868;48.812;8.198;2023-07-02T08:35:17;100079.56;;;23.88
65272;BMP280;51868;48.812;8.198;2023-07-02T08:37:44;100071.63;;;23.97
65272;BMP280;51868;48.812;8.198;2023-07-02T08:40:15;100075.03;;;24.05
65272;BMP280;51868;48.812;8.198;2023-07-02T08:42:44;100078.47;;;24.14
65272;BMP280;51868;48.812;8.198;2023-07-02T08:45:12;100071.91;;;24.26
65272;BMP280;51868;48.812;8.198;2023-07-02T08:47:40;100068.78;;;24.44
65272;BMP280;51868;48.812;8.198;2023-07-02T08:50:09;100077.78;;;24.61
65272;BMP280;51868;48.812;8.198;2023-07-02T08:52:38;100066.84;;;24.78
65272;BMP280;51868;48.812;8.198;2023-07-02T08:55:06;100066.50;;;24.96
65272;BMP280;51868;48.812;8.198;2023-07-02T08:57:34;100070.66;;;25.01
65272;BMP280;51868;48.812;8.198;2023-07-02T09:00:04;100068.00;;;24.91
65272;BMP280;51868;48.812;8.198;2023-07-02T09:02:33;100075.91;;;24.86
65272;BMP280;51868;48.812;8.198;2023-07-02T09:05:03;100071.44;;;24.97
65272;BMP280;51868;48.812;8.198;2023-07-02T09:07:42;100069.16;;;25.04
65272;BMP280;51868;48.812;8.198;2023-07-02T09:10:10;100076.75;;;25.16
65272;BMP280;51868;48.812;8.198;2023-07-02T09:12:37;100080.28;;;25.18
65272;BMP280;51868;48.812;8.198;2023-07-02T09:15:06;100058.81;;;25.27
65272;BMP280;51868;48.812;8.198;2023-07-02T09:17:34;100062.72;;;25.08
65272;BMP280;51868;48.812;8.198;2023-07-02T09:20:03;100058.38;;;25.13
65272;BMP280;51868;48.812;8.198;2023-07-02T09:22:32;100059.41;;;25.32
65272;BMP280;51868;48.812;8.198;2023-07-02T09:25:00;100059.00;;;25.17
65272;BMP280;51868;48.812;8.198;2023-07-02T09:27:34;100064.34;;;24.96
65272;BMP280;51868;48.812;8.198;2023-07-02T09:30:10;100055.47;;;25.17
65272;BMP280;51868;48.812;8.198;2023-07-02T09:32:38;100064.75;;;25.11
65272;BMP280;51868;48.812;8.198;2023-07-02T09:35:06;100057.75;;;25.08
65272;BMP280;51868;48.812;8.198;2023-07-02T09:37:35;100058.81;;;25.27
65272;BMP280;51868;48.812;8.198;2023-07-02T09:40:04;100058.38;;;25.48
65272;BMP280;51868;48.812;8.198;2023-07-02T09:42:34;100061.00;;;25.58
65272;BMP280;51868;48.812;8.198;2023-07-02T09:45:02;100058.13;;;25.60
65272;BMP280;51868;48.812;8.198;2023-07-02T09:47:29;100049.22;;;25.78
65272;BMP280;51868;48.812;8.198;2023-07-02T09:49:59;100044.53;;;25.96
65272;BMP280;51868;48.812;8.198;2023-07-02T09:52:27;100047.66;;;26.15
65272;BMP280;51868;48.812;8.198;2023-07-02T09:54:56;100043.06;;;26.28
65272;BMP280;51868;48.812;8.198;2023-07-02T09:57:23;100048.44;;;26.40
65272;BMP280;51868;48.812;8.198;2023-07-02T09:59:51;100046.09;;;26.49
65272;BMP280;51868;48.812;8.198;2023-07-02T10:02:18;100054.31;;;26.61
65272;BMP280;51868;48.812;8.198;2023-07-02T10:04:46;100046.22;;;26.69
65272;BMP280;51868;48.812;8.198;2023-07-02T10:07:25;100042.16;;;26.62
65272;BMP280;51868;48.812;8.198;2023-07-02T10:09:53;100051.53;;;26.59
65272;BMP280;51868;48.812;8.198;2023-07-02T10:12:22;100050.41;;;26.75
65272;BMP280;51868;48.812;8.198;2023-07-02T10:14:50;100052.28;;;26.84
65272;BMP280;51868;48.812;8.198;2023-07-02T10:17:25;100060.88;;;26.53
65272;BMP280;51868;48.812;8.198;2023-07-02T10:19:54;100046.59;;;26.28
65272;BMP280;51868;48.812;8.198;2023-07-02T10:22:22;100058.16;;;26.20
65272;BMP280;51868;48.812;8.198;2023-07-02T10:24:53;100058.94;;;26.17
65272;BMP280;51868;48.812;8.198;2023-07-02T10:27:32;100058.63;;;26.02
65272;BMP280;51868;48.812;8.198;2023-07-02T10:30:00;100059.63;;;26.19
65272;BMP280;51868;48.812;8.198;2023-07-02T10:32:29;100057.22;;;26.30
65272;BMP280;51868;48.812;8.198;2023-07-02T10:34:59;100049.19;;;26.38
65272;BMP280;51868;48.812;8.198;2023-07-02T10:37:34;100051.03;;;26.50
65272;BMP280;51868;48.812;8.198;2023-07-02T10:40:02;100042.66;;;26.71
65272;BMP280;51868;48.812;8.198;2023-07-02T10:42:33;100047.78;;;26.91
65272;BMP280;51868;48.812;8.198;2023-07-02T10:45:01;100055.78;;;27.12
65272;BMP280;51868;48.812;8.198;2023-07-02T10:47:28;100058.25;;;27.24
65272;BMP280;51868;48.812;8.198;2023-07-02T10:49:57;100048.72;;;27.34
65272;BMP280;51868;48.812;8.198;2023-07-02T10:52:24;100058.09;;;27.30
65272;BMP280;51868;48.812;8.198;2023-07-02T10:54:52;100060.13;;;27.09
65272;BMP280;51868;48.812;8.198;2023-07-02T10:57:19;100052.28;;;27.09
65272;BMP280;51868;48.812;8.198;2023-07-02T10:59:48;100051.94;;;26.96
65272;BMP280;51868;48.812;8.198;2023-07-02T11:02:17;100057.31;;;26.82
65272;BMP280;51868;48.812;8.198;2023-07-02T11:04:44;100058.13;;;26.78
65272;BMP280;51868;48.812;8.198;2023-07-02T11:07:13;100060.00;;;26.61
65272;BMP280;51868;48.812;8.198;2023-07-02T11:09:49;100061.50;;;26.58
65272;BMP280;51868;48.812;8.198;2023-07-02T11:12:27;100070.25;;;26.50
65272;BMP280;51868;48.812;8.198;2023-07-02T11:14:59;100060.19;;;26.53
65272;BMP280;51868;48.812;8.198;2023-07-02T11:17:33;100056.88;;;26.71
65272;BMP280;51868;48.812;8.198;2023-07-02T11:20:01;100046.34;;;26.92
65272;BMP280;51868;48.812;8.198;2023-07-02T11:22:31;100048.50;;;27.17
65272;BMP280;51868;48.812;8.198;2023-07-02T11:25:13;100045.06;;;27.37
65272;BMP280;51868;48.812;8.198;2023-07-02T11:27:41;100044.31;;;27.39
65272;BMP280;51868;48.812;8.198;2023-07-02T11:30:11;100042.75;;;27.19
65272;BMP280;51868;48.812;8.198;2023-07-02T11:32:49;100041.22;;;27.22
65272;BMP280;51868;48.812;8.198;2023-07-02T11:35:20;100054.59;;;27.03
65272;BMP280;51868;48.812;8.198;2023-07-02T11:37:47;100042.38;;;27.06
65272;BMP280;51868;48.812;8.198;2023-07-02T11:40:17;100038.56;;;27.16
65272;BMP280;51868;48.812;8.198;2023-07-02T11:42:44;100037.91;;;27.38
65272;BMP280;51868;48.812;8.198;2023-07-02T11:45:13;100027.09;;;27.66
65272;BMP280;51868;48.812;8.198;2023-07-02T11:47:41;100033.63;;;27.85
65272;BMP280;51868;48.812;8.198;2023-07-02T11:50:09;100030.78;;;28.06
65272;BMP280;51868;48.812;8.198;2023-07-02T11:52:50;100018.00;;;28.26
65272;BMP280;51868;48.812;8.198;2023-07-02T11:55:18;100018.28;;;28.38
65272;BMP280;51868;48.812;8.198;2023-07-02T11:57:46;100031.88;;;28.38
65272;BMP280;51868;48.812;8.198;2023-07-02T12:00:17;100023.84;;;28.22
65272;BMP280;51868;48.812;8.198;2023-07-02T12:02:44;100019.13;;;28.14
65272;BMP280;51868;48.812;8.198;2023-07-02T12:05:12;100018.50;;;28.12
65272;BMP280;51868;48.812;8.198;2023-07-02T12:07:39;100012.53;;;28.20
65272;BMP280;51868;48.812;8.198;2023-07-02T12:10:10;100020.13;;;28.27
65272;BMP280;51868;48.812;8.198;2023-07-02T12:12:37;100010.44;;;28.39
65272;BMP280;51868;48.812;8.198;2023-07-02T12:15:05;100011.59;;;28.46
65272;BMP280;51868;48.812;8.198;2023-07-02T12:17:34;100010.63;;;28.54
65272;BMP280;51868;48.812;8.198;2023-07-02T12:20:02;100012.94;;;28.49
65272;BMP280;51868;48.812;8.198;2023-07-02T12:22:30;100006.94;;;28.57
65272;BMP280;51868;48.812;8.198;2023-07-02T12:24:57;100006.97;;;28.55
65272;BMP280;51868;48.812;8.198;2023-07-02T12:27:25;100001.19;;;28.38
65272;BMP280;51868;48.812;8.198;2023-07-02T12:29:53;100009.25;;;28.32
65272;BMP280;51868;48.812;8.198;2023-07-02T12:32:21;100004.09;;;28.36
65272;BMP280;51868;48.812;8.198;2023-07-02T12:34:50;100002.41;;;28.44
65272;BMP280;51868;48.812;8.198;2023-07-02T12:37:17;100000.03;;;28.50
65272;BMP280;51868;48.812;8.198;2023-07-02T12:39:46;100003.78;;;28.65
65272;BMP280;51868;48.812;8.198;2023-07-02T12:42:14;100011.91;;;28.78
65272;BMP280;51868;48.812;8.198;2023-07-02T12:44:41;100015.09;;;28.88
65272;BMP280;51868;48.812;8.198;2023-07-02T12:47:09;100004.28;;;28.91
65272;BMP280;51868;48.812;8.198;2023-07-02T12:49:37;100008.03;;;28.85
65272;BMP280;51868;48.812;8.198;2023-07-02T12:52:06;99994.25;;;28.73
65272;BMP280;51868;48.812;8.198;2023-07-02T12:54:34;99995.47;;;28.78
65272;BMP280;51868;48.812;8.198;2023-07-02T12:57:01;99996.94;;;28.96
65272;BMP280;51868;48.812;8.198;2023-07-02T12:59:29;99999.34;;;29.08
65272;BMP280;51868;48.812;8.198;2023-07-02T13:01:57;99984.13;;;29.14
65272;BMP280;51868;48.812;8.198;2023-07-02T13:04:24;99990.00;;;29.10
65272;BMP280;51868;48.812;8.198;2023-07-02T13:06:52;99992.72;;;28.95
65272;BMP280;51868;48.812;8.198;2023-07-02T13:09:21;99985.38;;;29.00
65272;BMP280;51868;48.812;8.198;2023-07-02T13:11:48;99985.31;;;29.02
65272;BMP280;51868;48.812;8.198;2023-07-02T13:14:16;99987.22;;;28.89
65272;BMP280;51868;48.812;8.198;2023-07-02T13:16:44;99972.94;;;28.89
65272;BMP280;51868;48.812;8.198;2023-07-02T13:19:12;99989.94;;;28.93
65272;BMP280;51868;48.812;8.198;2023-07-02T13:21:41;99987.78;;;28.93
65272;BMP280;51868;48.812;8.198;2023-07-02T13:24:10;99982.66;;;28.96
65272;BMP280;51868;48.812;8.198;2023-07-02T13:26:39;99988.06;;;29.04
65272;BMP280;51868;48.812;8.198;2023-07-02T13:29:09;99981.66;;;29.04
65272;BMP280;51868;48.812;8.198;2023-07-02T13:31:37;99977.47;;;29.01
65272;BMP280;51868;48.812;8.198;2023-07-02T13:34:04;99982.81;;;28.92
65272;BMP280;51868;48.812;8.198;2023-07-02T13:36:32;99984.81;;;28.77
65272;BMP280;51868;48.812;8.198;2023-07-02T13:39:06;99968.47;;;28.75
65272;BMP280;51868;48.812;8.198;2023-07-02T13:41:33;99975.34;;;28.82
65272;BMP280;51868;48.812;8.198;2023-07-02T13:44:11;99965.66;;;28.92
65272;BMP280;51868;48.812;8.198;2023-07-02T13:46:46;99982.53;;;29.00
65272;BMP280;51868;48.812;8.198;2023-07-02T13:49:14;99979.13;;;28.95
65272;BMP280;51868;48.812;8.198;2023-07-02T13:51:42;99984.22;;;28.93
65272;BMP280;51868;48.812;8.198;2023-07-02T13:54:11;99978.59;;;28.91
65272;BMP280;51868;48.812;8.198;2023-07-02T13:56:40;99970.91;;;28.85
65272;BMP280;51868;48.812;8.198;2023-07-02T13:59:09;99969.69;;;28.80
65272;BMP280;51868;48.812;8.198;2023-07-02T14:01:37;99983.97;;;28.80
65272;BMP280;51868;48.812;8.198;2023-07-02T14:04:04;99987.63;;;28.79
65272;BMP280;51868;48.812;8.198;2023-07-02T14:06:32;99982.25;;;28.69
65272;BMP280;51868;48.812;8.198;2023-07-02T14:08:59;99979.53;;;28.64